57240/Bitragunta - Chennai Central Passenger (UnReserved)
బిట్రగుంట - చెన్నై సెంట్రల్ పాసింజర్     बिट्रगुंटा - चेन्नई सेंट्रल पैसेंजर

Time-Table CHANGES effective Aug 15, 2018
Comparison of Old and New Time-Tables

Time-Table has Changed. Show Changes
Destination Station Changed.


OLD TIME-TABLE

Travel Time: 7h 20m    29 halts    Distance: 210 km    Avg Speed: 29 km/hr
Type: Passenger
Zone: SCR/South Central
Departs @ 05:15
Platform# ???
SMTWTFS
Bitragunta/BTTR 
Arrives @ 12:35
Platform# ???
SMTWTFS
MGR Chennai Central/MAS 

Old TT effective UNTIL Jun 30, 2019.

29 halts. 38 intermediate Stations between Bitragunta and MGR Chennai Central

#TrkCodeStation NameArrivesDepartsHaltPFDay#KmSpeedElevZoneAddress
1|--|BTTRBitragunta»  05:15--10.08316mSCRPin- 524142, Andhra Pradesh
2|--|TMCTalamanchi  05:2805:291m--118.14115mSCRPin- 524316, Andhra Pradesh
3|--|KJJKodavaluru  05:36 05:3305:37 05:341m--122.85017mSCRPin- 524366, Andhra Pradesh
4|--|PGUPadugupadu  05:46 05:3805:47 05:391m--130.32021mSCRPin- 524137, Andhra Pradesh
5|--|NLRNellore  05:59 05:4606:00 05:481 2m--134.32521mSCRPh.no 0861-234866, Andhra Pradesh
6|--|NLSNellore South  06:06 05:5106:07 05:521m--136.84818mSCRPin- 524003, Andhra Pradesh
7|--|VDEVedayapalem  06:13 06:0406:14 06:051m--141.65127mSCRPin- 524004, Andhra Pradesh
8|--|VKTVenkatachalam  06:25 06:1406:26 06:151m--150.968 SCRPin- 524320., Andhra Pradesh
9|--|MBLManubolu  06:37 06:2406:38 06:251m--163.31522mSCRPin- 524405, Andhra Pradesh
10|--|GDRGudur Junction  07:15 06:5307:20 06:555 2m--172.75819mSCRPh ; 08624 - 251503, Andhra Pradesh
11|--|ODUROdur  07:29 07:2107:30 07:221m--181.44034mSRPin- 524410, Andhra Pradesh
12|--|PYAPedapariya  07:39 07:2907:40 07:301m--187.46642mSRPin- 524402, Andhra Pradesh
13|--|NYPNayadupeta  07:52 07:3907:53 07:401m--1100.67633mSRPincode-524126, Andhra Pradesh
14|--|DVRDoravari Chatram  08:02 07:4908:03 07:501m--1112.05031mSRPin- 524123, Andhra Pradesh
15|--|PELPolireddipalem  08:12 07:5908:13 08:001m--1119.64113mSRPin- 524121, Andhra Pradesh
16|--|SPESullurupeta  08:25 08:1008:35 08:1510 5m--1127.8479mSRPin- 524121, Andhra Pradesh
17|--|TADATada  08:51 08:3108:52 08:321m--1140.25010mSRDistrict : S.P.S.R. Nellore - 524401, Andhra Pradesh
18|--|AKMArambakkam  09:01 08:4109:02 08:421m--1147.74912mSRPincode-601201, Tamil Nadu
19|--|ELRElavur  09:14 08:5109:15 08:521m--1157.43315mSRPin- 601201, Tamil Nadu
20|--|GPDGummidipundi  09:25 09:0509:40 09:1015 5m--1163.03918mSRPin- 601201, Tamil Nadu
21|--|KVPKavaraippettai  09:49 09:1509:51 09:162 1m--1168.85116mSRPin- 601206, Tamil Nadu
22|--|PONPonneri  09:59 09:2410:00 09:251m--1175.53715mSRPin- 601204, Tamil Nadu
23|--|MJRMinjur  10:14 09:4110:15 09:421m--1184.3237mSRPin- 601203, Tamil Nadu
24|--|AIPAttipattu  10:25 09:4710:26 09:481m--1188.2277mSRPin- 600120, Tamil Nadu
25|--|AIPPAttipattu Pudu Nagar  10:30 09:4910:31 09:501m--1190.0524mSRPin- 600120, Tamil Nadu
26|--|ENREnnore  10:36 09:5410:37 09:551m--1194.3286mSRPin- 600057, Tamil Nadu
27|--|TVTTiruvottiyur  10:52 10:0510:53 10:061m--1201.3296mSRPhone: 044-25735314, Tamil Nadu
28|--|TNPTondiarpet  11:01 10:1111:02 10:121m--1205.2265mSRChennai, Tamil Nadu
29|--|KOKKorukkupet  11:04 10:1311:05 10:141m--1206.132 SRChennai, Tamil Nadu
30|--|BBQBasin Bridge Junction  11:09 10:1811:10 10:191m--1208.22 SRChennai 600012, Tamil Nadu
31|--|MASMGR Chennai Central•  12:35--1210.4- SRChennai Central 600003, Tamil Nadu


NEW TIME-TABLE

This is the Shortest Route between Bitragunta and Chennai Suburban Terminal.
Travel Time: 6h 10m    35 halts    Distance: 210 km    Avg Speed: 34 km/hr
Max Permissible Speed: n/a
Type: MEMU
Rake Zone: SCR/South Central
Departs @ 05:15
Platform# 2
SMTWTFS
BTTR/Bitragunta 
Arrives @ 11:25
Platform# --
SMTWTFS
MASS/Chennai Suburban Terminal 

NEW TT effective Jun 30, 2019.

35 halts. 38 intermediate Stations between Bitragunta and Chennai Suburban Terminal (Moore Market Complex)

#TrkCodeStation NameArrivesDepartsHaltPFDay#KmSpeedElevZoneAddress
1/==/BTTRBitragunta»  05:15210.08316mSCRPin- 524142, Andhra Pradesh
2/==/TMCTalamanchi  05:2805:291m0118.17115mSCRPin- 524316, Andhra Pradesh
3/==/KJJKodavaluru  05:36 05:3305:37 05:341m0122.811217mSCRPin- 524366, Andhra Pradesh
4/==/PGUPadugupadu  05:46 05:3805:47 05:391m3130.33421mSCRPin- 524137, Andhra Pradesh
5/==/NLRNellore  05:59 05:4606:00 05:481 2m4134.35021mSCRPh.no 0861-234866, Andhra Pradesh
6/==/NLSNellore South  06:06 05:5106:07 05:521m2136.82418mSCRPin- 524003, Andhra Pradesh
7/==/VDEVedayapalem  06:13 06:0406:14 06:051m2141.66227mSCRPin- 524004, Andhra Pradesh
8/==/VKTVenkatachalam  06:25 06:1406:26 06:151m3150.983 SCRPin- 524320., Andhra Pradesh
9/==/MBLManubolu  06:37 06:2406:38 06:251m3163.32022mSCRPin- 524405, Andhra Pradesh
10/==/GDRGudur Junction  07:15 06:5307:20 06:555 2m1172.72019mSCRPh ; 08624 - 251503, Andhra Pradesh
11/==/ODUROdur  07:29 07:2107:30 07:221m1181.45134mSRPin- 524410, Andhra Pradesh
12/==/PYAPedapariya  07:39 07:2907:40 07:301m2187.48842mSRPin- 524402, Andhra Pradesh
13/==/NYPNayadupeta  07:52 07:3907:53 07:401m21100.67633mSRPincode-524126, Andhra Pradesh
14/==/DVRDoravari Chatram  08:02 07:4908:03 07:501m11112.05031mSRPin- 524123, Andhra Pradesh
15/==/PELPolireddipalem  08:12 07:5908:13 08:001m11119.64913mSRPin- 524121, Andhra Pradesh
16/==/SPESullurupeta  08:25 08:1008:35 08:1510 5m21127.8479mSRPin- 524121, Andhra Pradesh
17/==/AKATAkkampeta new halt!!  08:2208:231m21133.2524mSRDistrict : S.P.S.R. Nellore - 524121, Andhra Pradesh
18/==/TADATada  08:51 08:3108:52 08:321m21140.25010mSRDistrict : S.P.S.R. Nellore - 524401, Andhra Pradesh
19/==/AKMArambakkam  09:01 08:4109:02 08:421m21147.76512mSRPincode-601201, Tamil Nadu
20/==/ELRElavur  09:14 08:5109:15 08:521m11157.42615mSRPin- 601201, Tamil Nadu
21/==/GPDGummidipundi  09:25 09:0509:40 09:1015 5m21163.07018mSRPin- 601201, Tamil Nadu
22/==/KVPKavaraippettai  09:49 09:1509:51 09:162 1m31168.85116mSRPin- 601206, Tamil Nadu
23/==/PONPonneri  09:59 09:2410:00 09:251m31175.53115mSRPin- 601204, Tamil Nadu
24/==/APBAnuppambattu new halt!!  09:3409:351m21180.34011mSRPin- 601203, Tamil Nadu
25/==/MJRMinjur  10:14 09:4110:15 09:421m31184.3467mSRPin- 601203, Tamil Nadu
26/==/NPKMNandiambakkam new halt!!  09:4509:461m21186.6956mSRPin- 600120, Tamil Nadu
27/==/AIPAttipattu  10:25 09:4710:26 09:481m21188.21097mSRPin- 600120, Tamil Nadu
28/==/AIPPAttipattu Pudu Nagar  10:30 09:4910:31 09:501m31190.0654mSRPin- 600120, Tamil Nadu
29/==/ENREnnore  10:36 09:5410:37 09:551m21194.3946mSRPin- 600057, Tamil Nadu
30/==/KAVMKathivakkam new halt!!  09:5609:571m21195.8889mSRPin- 600057, Tamil Nadu
31/==/WCNWimco Nagar new halt!!  09:5910:001m21198.8309mSRPin- 600057, Tamil Nadu
32/==/TVTTiruvottiyur  10:52 10:0510:53 10:061m11201.3476mSRPhone: 044-25735314, Tamil Nadu
33/==/VOCV.O.C. Nagar new halt!!  10:0910:101m21203.7926mSRChennai-600024, Tamil Nadu
34/==/TNPTondiarpet  11:01 10:1111:02 10:121m21205.2525mSRChennai, Tamil Nadu
35/==/KOKKorukkupet  11:04 10:1311:05 10:141m31206.132 SRChennai, Tamil Nadu
36/==/BBQBasin Bridge Junction  11:09 10:1811:10 10:191m61208.22 SRChennai 600012, Tamil Nadu
37/==/MASSChennai Suburban Terminal (Moore Market Complex)• new halt!!  11:2501210.4- SRChennai-600003, Tamil Nadu
Go to Full Mobile site